<?xml version="1.0" encoding="utf-8"?>
<gpx xmlns:xsi="http://www.w3.org/2001/XMLSchema-instance" xmlns:xsd="http://www.w3.org/2001/XMLSchema" version="1.1" creator="Shapelink.com" xmlns="http://www.topografix.com/GPX/1/1" xmlns:gpxtpx="http://www.garmin.com/xmlschemas/TrackPointExtension/v1">
  <metadata>
    <name>Løping 3.22 km, 2012-07-09</name>
    <desc></desc>
    <author><name>Mikael Blom</name></author> 
    <time>2012-07-09T07:49:49Z</time>
  </metadata>
  <trk>
    <name>Løping 3.22 km, 2012-07-09</name>
    <trkseg>
      <trkpt lat="59.9789157" lon="17.7394585">
        <ele>46.2806</ele>
        <time>2012-07-09T07:49:49Z</time>
      </trkpt>
      <trkpt lat="59.9789276" lon="17.7393522">
        <ele>43.8773</ele>
        <time>2012-07-09T07:49:52Z</time>
      </trkpt>
      <trkpt lat="59.9788061" lon="17.739365">
        <ele>40.9934</ele>
        <time>2012-07-09T07:49:57Z</time>
      </trkpt>
      <trkpt lat="59.9786822" lon="17.7393568">
        <ele>35.7061</ele>
        <time>2012-07-09T07:50:01Z</time>
      </trkpt>
      <trkpt lat="59.978531" lon="17.7393414">
        <ele>35.2255</ele>
        <time>2012-07-09T07:50:07Z</time>
      </trkpt>
      <trkpt lat="59.9785067" lon="17.739344">
        <ele>36.1868</ele>
        <time>2012-07-09T07:50:08Z</time>
      </trkpt>
      <trkpt lat="59.9784014" lon="17.7393559">
        <ele>41.9547</ele>
        <time>2012-07-09T07:50:13Z</time>
      </trkpt>
      <trkpt lat="59.9782497" lon="17.7393522">
        <ele>46.7612</ele>
        <time>2012-07-09T07:50:20Z</time>
      </trkpt>
      <trkpt lat="59.9781236" lon="17.7393694">
        <ele>51.0872</ele>
        <time>2012-07-09T07:50:24Z</time>
      </trkpt>
      <trkpt lat="59.9779565" lon="17.7392922">
        <ele>50.6066</ele>
        <time>2012-07-09T07:50:29Z</time>
      </trkpt>
      <trkpt lat="59.9778207" lon="17.7391834">
        <ele>45.3192</ele>
        <time>2012-07-09T07:50:35Z</time>
      </trkpt>
      <trkpt lat="59.9777105" lon="17.7391808">
        <ele>44.358</ele>
        <time>2012-07-09T07:50:40Z</time>
      </trkpt>
      <trkpt lat="59.9776722" lon="17.7391616">
        <ele>42.916</ele>
        <time>2012-07-09T07:50:42Z</time>
      </trkpt>
      <trkpt lat="59.9775272" lon="17.7391642">
        <ele>47.2418</ele>
        <time>2012-07-09T07:50:48Z</time>
      </trkpt>
      <trkpt lat="59.9774079" lon="17.7391949">
        <ele>49.1646</ele>
        <time>2012-07-09T07:50:53Z</time>
      </trkpt>
      <trkpt lat="59.9772866" lon="17.739243">
        <ele>46.2806</ele>
        <time>2012-07-09T07:50:58Z</time>
      </trkpt>
      <trkpt lat="59.9771427" lon="17.7393294">
        <ele>42.4354</ele>
        <time>2012-07-09T07:51:04Z</time>
      </trkpt>
      <trkpt lat="59.9770296" lon="17.73939">
        <ele>41.474</ele>
        <time>2012-07-09T07:51:09Z</time>
      </trkpt>
      <trkpt lat="59.9768908" lon="17.7394448">
        <ele>38.5901</ele>
        <time>2012-07-09T07:51:16Z</time>
      </trkpt>
      <trkpt lat="59.9767636" lon="17.739489">
        <ele>39.5513</ele>
        <time>2012-07-09T07:51:21Z</time>
      </trkpt>
      <trkpt lat="59.976637" lon="17.7395191">
        <ele>40.9934</ele>
        <time>2012-07-09T07:51:26Z</time>
      </trkpt>
      <trkpt lat="59.9765546" lon="17.7396005">
        <ele>40.9934</ele>
        <time>2012-07-09T07:51:30Z</time>
      </trkpt>
      <trkpt lat="59.9764565" lon="17.7397589">
        <ele>36.6675</ele>
        <time>2012-07-09T07:51:35Z</time>
      </trkpt>
      <trkpt lat="59.9763781" lon="17.7399475">
        <ele>35.2255</ele>
        <time>2012-07-09T07:51:40Z</time>
      </trkpt>
      <trkpt lat="59.9763028" lon="17.7401614">
        <ele>37.1481</ele>
        <time>2012-07-09T07:51:45Z</time>
      </trkpt>
      <trkpt lat="59.9762187" lon="17.7404416">
        <ele>41.474</ele>
        <time>2012-07-09T07:51:51Z</time>
      </trkpt>
      <trkpt lat="59.9761264" lon="17.7407303">
        <ele>41.474</ele>
        <time>2012-07-09T07:51:57Z</time>
      </trkpt>
      <trkpt lat="59.9760487" lon="17.7409538">
        <ele>42.4354</ele>
        <time>2012-07-09T07:52:03Z</time>
      </trkpt>
      <trkpt lat="59.9759755" lon="17.7412312">
        <ele>38.1094</ele>
        <time>2012-07-09T07:52:10Z</time>
      </trkpt>
      <trkpt lat="59.9758934" lon="17.7415121">
        <ele>33.3029</ele>
        <time>2012-07-09T07:52:17Z</time>
      </trkpt>
      <trkpt lat="59.9758266" lon="17.7417599">
        <ele>30.4188</ele>
        <time>2012-07-09T07:52:23Z</time>
      </trkpt>
      <trkpt lat="59.9757783" lon="17.7419832">
        <ele>30.4188</ele>
        <time>2012-07-09T07:52:28Z</time>
      </trkpt>
      <trkpt lat="59.9757221" lon="17.742212">
        <ele>29.9381</ele>
        <time>2012-07-09T07:52:33Z</time>
      </trkpt>
      <trkpt lat="59.9756605" lon="17.7424107">
        <ele>28.9769</ele>
        <time>2012-07-09T07:52:38Z</time>
      </trkpt>
      <trkpt lat="59.9756063" lon="17.7426364">
        <ele>28.9769</ele>
        <time>2012-07-09T07:52:43Z</time>
      </trkpt>
      <trkpt lat="59.9755607" lon="17.7428119">
        <ele>30.4188</ele>
        <time>2012-07-09T07:52:47Z</time>
      </trkpt>
      <trkpt lat="59.9754728" lon="17.7430898">
        <ele>30.8995</ele>
        <time>2012-07-09T07:52:53Z</time>
      </trkpt>
      <trkpt lat="59.9754132" lon="17.7433041">
        <ele>31.3801</ele>
        <time>2012-07-09T07:52:58Z</time>
      </trkpt>
      <trkpt lat="59.9753571" lon="17.7435393">
        <ele>31.8607</ele>
        <time>2012-07-09T07:53:03Z</time>
      </trkpt>
      <trkpt lat="59.9753255" lon="17.7437782">
        <ele>31.8607</ele>
        <time>2012-07-09T07:53:08Z</time>
      </trkpt>
      <trkpt lat="59.9752827" lon="17.7440146">
        <ele>31.3801</ele>
        <time>2012-07-09T07:53:13Z</time>
      </trkpt>
      <trkpt lat="59.975249" lon="17.7442163">
        <ele>30.8995</ele>
        <time>2012-07-09T07:53:17Z</time>
      </trkpt>
      <trkpt lat="59.9751905" lon="17.744493">
        <ele>31.3801</ele>
        <time>2012-07-09T07:53:23Z</time>
      </trkpt>
      <trkpt lat="59.9751085" lon="17.7447591">
        <ele>32.8223</ele>
        <time>2012-07-09T07:53:29Z</time>
      </trkpt>
      <trkpt lat="59.9750447" lon="17.744993">
        <ele>32.8223</ele>
        <time>2012-07-09T07:53:35Z</time>
      </trkpt>
      <trkpt lat="59.9750291" lon="17.7450387">
        <ele>32.8223</ele>
        <time>2012-07-09T07:53:36Z</time>
      </trkpt>
      <trkpt lat="59.9749433" lon="17.7453086">
        <ele>33.7834</ele>
        <time>2012-07-09T07:53:42Z</time>
      </trkpt>
      <trkpt lat="59.9748778" lon="17.7454657">
        <ele>34.2642</ele>
        <time>2012-07-09T07:53:46Z</time>
      </trkpt>
      <trkpt lat="59.974837" lon="17.7456334">
        <ele>33.3029</ele>
        <time>2012-07-09T07:53:50Z</time>
      </trkpt>
      <trkpt lat="59.9747735" lon="17.7458091">
        <ele>33.3029</ele>
        <time>2012-07-09T07:53:54Z</time>
      </trkpt>
      <trkpt lat="59.9746635" lon="17.7459817">
        <ele>32.3416</ele>
        <time>2012-07-09T07:53:59Z</time>
      </trkpt>
      <trkpt lat="59.9745189" lon="17.7461769">
        <ele>32.3416</ele>
        <time>2012-07-09T07:54:04Z</time>
      </trkpt>
      <trkpt lat="59.9744123" lon="17.7463297">
        <ele>34.7449</ele>
        <time>2012-07-09T07:54:09Z</time>
      </trkpt>
      <trkpt lat="59.9743278" lon="17.7464759">
        <ele>35.7061</ele>
        <time>2012-07-09T07:54:14Z</time>
      </trkpt>
      <trkpt lat="59.9741942" lon="17.746649">
        <ele>35.2255</ele>
        <time>2012-07-09T07:54:20Z</time>
      </trkpt>
      <trkpt lat="59.9740926" lon="17.7467798">
        <ele>34.2642</ele>
        <time>2012-07-09T07:54:25Z</time>
      </trkpt>
      <trkpt lat="59.9739766" lon="17.7469146">
        <ele>32.3416</ele>
        <time>2012-07-09T07:54:30Z</time>
      </trkpt>
      <trkpt lat="59.9738818" lon="17.7470204">
        <ele>30.4188</ele>
        <time>2012-07-09T07:54:34Z</time>
      </trkpt>
      <trkpt lat="59.9737524" lon="17.74714">
        <ele>28.0155</ele>
        <time>2012-07-09T07:54:40Z</time>
      </trkpt>
      <trkpt lat="59.9736732" lon="17.7472155">
        <ele>26.5736</ele>
        <time>2012-07-09T07:54:44Z</time>
      </trkpt>
      <trkpt lat="59.9735721" lon="17.7473528">
        <ele>27.0543</ele>
        <time>2012-07-09T07:54:49Z</time>
      </trkpt>
      <trkpt lat="59.9734348" lon="17.7474979">
        <ele>28.0155</ele>
        <time>2012-07-09T07:54:55Z</time>
      </trkpt>
      <trkpt lat="59.9733126" lon="17.7476186">
        <ele>30.8995</ele>
        <time>2012-07-09T07:55:00Z</time>
      </trkpt>
      <trkpt lat="59.973224" lon="17.7477176">
        <ele>30.8995</ele>
        <time>2012-07-09T07:55:04Z</time>
      </trkpt>
      <trkpt lat="59.9730819" lon="17.7478568">
        <ele>32.8223</ele>
        <time>2012-07-09T07:55:10Z</time>
      </trkpt>
      <trkpt lat="59.9729779" lon="17.7480139">
        <ele>32.8223</ele>
        <time>2012-07-09T07:55:15Z</time>
      </trkpt>
      <trkpt lat="59.9728905" lon="17.7481536">
        <ele>32.3416</ele>
        <time>2012-07-09T07:55:19Z</time>
      </trkpt>
      <trkpt lat="59.9727888" lon="17.7483626">
        <ele>32.8223</ele>
        <time>2012-07-09T07:55:24Z</time>
      </trkpt>
      <trkpt lat="59.9727054" lon="17.7485385">
        <ele>32.8223</ele>
        <time>2012-07-09T07:55:28Z</time>
      </trkpt>
      <trkpt lat="59.9726662" lon="17.7486893">
        <ele>31.3801</ele>
        <time>2012-07-09T07:55:32Z</time>
      </trkpt>
      <trkpt lat="59.9725786" lon="17.7488706">
        <ele>30.8995</ele>
        <time>2012-07-09T07:55:37Z</time>
      </trkpt>
      <trkpt lat="59.9725127" lon="17.7490561">
        <ele>32.8223</ele>
        <time>2012-07-09T07:55:41Z</time>
      </trkpt>
      <trkpt lat="59.9724381" lon="17.7492173">
        <ele>32.3416</ele>
        <time>2012-07-09T07:55:45Z</time>
      </trkpt>
      <trkpt lat="59.9723677" lon="17.7494014">
        <ele>31.8607</ele>
        <time>2012-07-09T07:55:49Z</time>
      </trkpt>
      <trkpt lat="59.9722987" lon="17.749584">
        <ele>30.4188</ele>
        <time>2012-07-09T07:55:54Z</time>
      </trkpt>
      <trkpt lat="59.972263" lon="17.7496384">
        <ele>30.8995</ele>
        <time>2012-07-09T07:55:56Z</time>
      </trkpt>
      <trkpt lat="59.9722375" lon="17.749773">
        <ele>28.9769</ele>
        <time>2012-07-09T07:56:00Z</time>
      </trkpt>
      <trkpt lat="59.9721644" lon="17.7499226">
        <ele>27.0543</ele>
        <time>2012-07-09T07:56:04Z</time>
      </trkpt>
      <trkpt lat="59.9720724" lon="17.7501024">
        <ele>27.5349</ele>
        <time>2012-07-09T07:56:09Z</time>
      </trkpt>
      <trkpt lat="59.9719523" lon="17.7503409">
        <ele>29.9381</ele>
        <time>2012-07-09T07:56:15Z</time>
      </trkpt>
      <trkpt lat="59.9718518" lon="17.7505231">
        <ele>29.4575</ele>
        <time>2012-07-09T07:56:21Z</time>
      </trkpt>
      <trkpt lat="59.9717865" lon="17.7506133">
        <ele>30.4188</ele>
        <time>2012-07-09T07:56:24Z</time>
      </trkpt>
      <trkpt lat="59.9716636" lon="17.7507977">
        <ele>30.8995</ele>
        <time>2012-07-09T07:56:30Z</time>
      </trkpt>
      <trkpt lat="59.9715705" lon="17.7509296">
        <ele>31.8607</ele>
        <time>2012-07-09T07:56:35Z</time>
      </trkpt>
      <trkpt lat="59.9714896" lon="17.7510158">
        <ele>30.8995</ele>
        <time>2012-07-09T07:56:39Z</time>
      </trkpt>
      <trkpt lat="59.9713875" lon="17.7511689">
        <ele>30.4188</ele>
        <time>2012-07-09T07:56:44Z</time>
      </trkpt>
      <trkpt lat="59.9712823" lon="17.7512964">
        <ele>29.9381</ele>
        <time>2012-07-09T07:56:48Z</time>
      </trkpt>
      <trkpt lat="59.9711238" lon="17.7514241">
        <ele>35.2255</ele>
        <time>2012-07-09T07:56:54Z</time>
      </trkpt>
      <trkpt lat="59.9710197" lon="17.7515295">
        <ele>34.7449</ele>
        <time>2012-07-09T07:56:59Z</time>
      </trkpt>
      <trkpt lat="59.9709317" lon="17.7516233">
        <ele>40.5128</ele>
        <time>2012-07-09T07:57:03Z</time>
      </trkpt>
      <trkpt lat="59.9708463" lon="17.7517503">
        <ele>42.4354</ele>
        <time>2012-07-09T07:57:07Z</time>
      </trkpt>
      <trkpt lat="59.9707556" lon="17.7519585">
        <ele>39.0707</ele>
        <time>2012-07-09T07:57:12Z</time>
      </trkpt>
      <trkpt lat="59.9706624" lon="17.7521076">
        <ele>38.1094</ele>
        <time>2012-07-09T07:57:17Z</time>
      </trkpt>
      <trkpt lat="59.9705945" lon="17.7522693">
        <ele>34.2642</ele>
        <time>2012-07-09T07:57:22Z</time>
      </trkpt>
      <trkpt lat="59.9705211" lon="17.7524858">
        <ele>31.3801</ele>
        <time>2012-07-09T07:57:27Z</time>
      </trkpt>
      <trkpt lat="59.9704728" lon="17.752648">
        <ele>28.4962</ele>
        <time>2012-07-09T07:57:32Z</time>
      </trkpt>
      <trkpt lat="59.9703835" lon="17.7528588">
        <ele>27.0543</ele>
        <time>2012-07-09T07:57:37Z</time>
      </trkpt>
      <trkpt lat="59.9703537" lon="17.7529428">
        <ele>27.0543</ele>
        <time>2012-07-09T07:57:39Z</time>
      </trkpt>
      <trkpt lat="59.9702825" lon="17.7532007">
        <ele>29.4575</ele>
        <time>2012-07-09T07:57:45Z</time>
      </trkpt>
      <trkpt lat="59.9701621" lon="17.7535099">
        <ele>30.4188</ele>
        <time>2012-07-09T07:57:52Z</time>
      </trkpt>
      <trkpt lat="59.9700794" lon="17.7537196">
        <ele>30.4188</ele>
        <time>2012-07-09T07:57:57Z</time>
      </trkpt>
      <trkpt lat="59.9700028" lon="17.75391">
        <ele>30.8995</ele>
        <time>2012-07-09T07:58:02Z</time>
      </trkpt>
      <trkpt lat="59.9699319" lon="17.7540873">
        <ele>31.3801</ele>
        <time>2012-07-09T07:58:06Z</time>
      </trkpt>
      <trkpt lat="59.9698327" lon="17.7543429">
        <ele>32.3416</ele>
        <time>2012-07-09T07:58:11Z</time>
      </trkpt>
      <trkpt lat="59.9697454" lon="17.7544822">
        <ele>32.8223</ele>
        <time>2012-07-09T07:58:15Z</time>
      </trkpt>
      <trkpt lat="59.9696528" lon="17.7546429">
        <ele>32.8223</ele>
        <time>2012-07-09T07:58:20Z</time>
      </trkpt>
      <trkpt lat="59.9695469" lon="17.7548506">
        <ele>32.8223</ele>
        <time>2012-07-09T07:58:26Z</time>
      </trkpt>
      <trkpt lat="59.9694788" lon="17.7550165">
        <ele>33.7834</ele>
        <time>2012-07-09T07:58:30Z</time>
      </trkpt>
      <trkpt lat="59.9694109" lon="17.7551689">
        <ele>33.7834</ele>
        <time>2012-07-09T07:58:34Z</time>
      </trkpt>
      <trkpt lat="59.9693166" lon="17.7553934">
        <ele>35.2255</ele>
        <time>2012-07-09T07:58:40Z</time>
      </trkpt>
      <trkpt lat="59.969213" lon="17.7556191">
        <ele>35.2255</ele>
        <time>2012-07-09T07:58:46Z</time>
      </trkpt>
      <trkpt lat="59.9691017" lon="17.7558333">
        <ele>34.2642</ele>
        <time>2012-07-09T07:58:51Z</time>
      </trkpt>
      <trkpt lat="59.9690384" lon="17.7559648">
        <ele>33.7834</ele>
        <time>2012-07-09T07:58:55Z</time>
      </trkpt>
      <trkpt lat="59.9689543" lon="17.7561578">
        <ele>34.7449</ele>
        <time>2012-07-09T07:59:00Z</time>
      </trkpt>
      <trkpt lat="59.9688701" lon="17.7563197">
        <ele>34.2642</ele>
        <time>2012-07-09T07:59:05Z</time>
      </trkpt>
      <trkpt lat="59.9687473" lon="17.7565216">
        <ele>33.7834</ele>
        <time>2012-07-09T07:59:11Z</time>
      </trkpt>
      <trkpt lat="59.9687384" lon="17.7565075">
        <ele>34.7449</ele>
        <time>2012-07-09T07:59:12Z</time>
      </trkpt>
      <trkpt lat="59.9687811" lon="17.7563098">
        <ele>37.6287</ele>
        <time>2012-07-09T07:59:16Z</time>
      </trkpt>
      <trkpt lat="59.9688343" lon="17.7562013">
        <ele>36.6675</ele>
        <time>2012-07-09T07:59:19Z</time>
      </trkpt>
      <trkpt lat="59.9689551" lon="17.7559985">
        <ele>36.6675</ele>
        <time>2012-07-09T07:59:25Z</time>
      </trkpt>
      <trkpt lat="59.969053" lon="17.75581">
        <ele>35.7061</ele>
        <time>2012-07-09T07:59:30Z</time>
      </trkpt>
      <trkpt lat="59.9691395" lon="17.7555903">
        <ele>36.6675</ele>
        <time>2012-07-09T07:59:35Z</time>
      </trkpt>
      <trkpt lat="59.9692437" lon="17.7554043">
        <ele>35.7061</ele>
        <time>2012-07-09T07:59:40Z</time>
      </trkpt>
      <trkpt lat="59.9693228" lon="17.755247">
        <ele>35.7061</ele>
        <time>2012-07-09T07:59:44Z</time>
      </trkpt>
      <trkpt lat="59.9694048" lon="17.7550375">
        <ele>37.6287</ele>
        <time>2012-07-09T07:59:49Z</time>
      </trkpt>
      <trkpt lat="59.9694824" lon="17.7548331">
        <ele>38.1094</ele>
        <time>2012-07-09T07:59:54Z</time>
      </trkpt>
      <trkpt lat="59.9695659" lon="17.7546689">
        <ele>39.5513</ele>
        <time>2012-07-09T07:59:59Z</time>
      </trkpt>
      <trkpt lat="59.9696607" lon="17.7544932">
        <ele>40.0321</ele>
        <time>2012-07-09T08:00:05Z</time>
      </trkpt>
      <trkpt lat="59.9697293" lon="17.7543463">
        <ele>40.5128</ele>
        <time>2012-07-09T08:00:10Z</time>
      </trkpt>
      <trkpt lat="59.969793" lon="17.7541522">
        <ele>42.916</ele>
        <time>2012-07-09T08:00:15Z</time>
      </trkpt>
      <trkpt lat="59.9698842" lon="17.7539513">
        <ele>42.4354</ele>
        <time>2012-07-09T08:00:21Z</time>
      </trkpt>
      <trkpt lat="59.9699731" lon="17.753771">
        <ele>44.358</ele>
        <time>2012-07-09T08:00:27Z</time>
      </trkpt>
      <trkpt lat="59.9699899" lon="17.7537465">
        <ele>44.358</ele>
        <time>2012-07-09T08:00:28Z</time>
      </trkpt>
      <trkpt lat="59.9700681" lon="17.7535839">
        <ele>43.8773</ele>
        <time>2012-07-09T08:00:33Z</time>
      </trkpt>
      <trkpt lat="59.9701414" lon="17.7533302">
        <ele>45.7999</ele>
        <time>2012-07-09T08:00:39Z</time>
      </trkpt>
      <trkpt lat="59.9702071" lon="17.7531514">
        <ele>45.7999</ele>
        <time>2012-07-09T08:00:44Z</time>
      </trkpt>
      <trkpt lat="59.9702585" lon="17.752934">
        <ele>48.2034</ele>
        <time>2012-07-09T08:00:49Z</time>
      </trkpt>
      <trkpt lat="59.9703048" lon="17.7527707">
        <ele>49.6453</ele>
        <time>2012-07-09T08:00:53Z</time>
      </trkpt>
      <trkpt lat="59.9703672" lon="17.752544">
        <ele>51.5679</ele>
        <time>2012-07-09T08:00:58Z</time>
      </trkpt>
      <trkpt lat="59.9704091" lon="17.7524238">
        <ele>51.5679</ele>
        <time>2012-07-09T08:01:01Z</time>
      </trkpt>
      <trkpt lat="59.9704401" lon="17.7523424">
        <ele>52.5292</ele>
        <time>2012-07-09T08:01:03Z</time>
      </trkpt>
      <trkpt lat="59.9705292" lon="17.7521663">
        <ele>52.0486</ele>
        <time>2012-07-09T08:01:08Z</time>
      </trkpt>
      <trkpt lat="59.9706192" lon="17.7519851">
        <ele>53.4905</ele>
        <time>2012-07-09T08:01:13Z</time>
      </trkpt>
      <trkpt lat="59.9706384" lon="17.7519571">
        <ele>53.4905</ele>
        <time>2012-07-09T08:01:14Z</time>
      </trkpt>
      <trkpt lat="59.9707231" lon="17.7517762">
        <ele>55.8938</ele>
        <time>2012-07-09T08:01:19Z</time>
      </trkpt>
      <trkpt lat="59.9708187" lon="17.7516045">
        <ele>54.9324</ele>
        <time>2012-07-09T08:01:24Z</time>
      </trkpt>
      <trkpt lat="59.9709336" lon="17.75148">
        <ele>53.0098</ele>
        <time>2012-07-09T08:01:29Z</time>
      </trkpt>
      <trkpt lat="59.9710442" lon="17.7513758">
        <ele>51.5679</ele>
        <time>2012-07-09T08:01:34Z</time>
      </trkpt>
      <trkpt lat="59.9711763" lon="17.7512363">
        <ele>49.6453</ele>
        <time>2012-07-09T08:01:40Z</time>
      </trkpt>
      <trkpt lat="59.9712524" lon="17.7511582">
        <ele>48.2034</ele>
        <time>2012-07-09T08:01:44Z</time>
      </trkpt>
      <trkpt lat="59.9713731" lon="17.751069">
        <ele>44.8386</ele>
        <time>2012-07-09T08:01:49Z</time>
      </trkpt>
      <trkpt lat="59.9715327" lon="17.7509339">
        <ele>42.916</ele>
        <time>2012-07-09T08:01:56Z</time>
      </trkpt>
      <trkpt lat="59.9716306" lon="17.7508097">
        <ele>41.9547</ele>
        <time>2012-07-09T08:02:01Z</time>
      </trkpt>
      <trkpt lat="59.9717324" lon="17.7506612">
        <ele>41.474</ele>
        <time>2012-07-09T08:02:07Z</time>
      </trkpt>
      <trkpt lat="59.9718051" lon="17.7504941">
        <ele>42.4354</ele>
        <time>2012-07-09T08:02:12Z</time>
      </trkpt>
      <trkpt lat="59.9718839" lon="17.7503434">
        <ele>42.4354</ele>
        <time>2012-07-09T08:02:17Z</time>
      </trkpt>
      <trkpt lat="59.9719906" lon="17.7501414">
        <ele>40.9934</ele>
        <time>2012-07-09T08:02:23Z</time>
      </trkpt>
      <trkpt lat="59.972058" lon="17.7499461">
        <ele>40.9934</ele>
        <time>2012-07-09T08:02:28Z</time>
      </trkpt>
      <trkpt lat="59.9721325" lon="17.7497578">
        <ele>41.474</ele>
        <time>2012-07-09T08:02:33Z</time>
      </trkpt>
      <trkpt lat="59.9722038" lon="17.7495528">
        <ele>41.9547</ele>
        <time>2012-07-09T08:02:39Z</time>
      </trkpt>
      <trkpt lat="59.9722316" lon="17.7494166">
        <ele>41.474</ele>
        <time>2012-07-09T08:02:43Z</time>
      </trkpt>
      <trkpt lat="59.9723505" lon="17.7492255">
        <ele>40.5128</ele>
        <time>2012-07-09T08:02:50Z</time>
      </trkpt>
      <trkpt lat="59.972436" lon="17.7490287">
        <ele>40.9934</ele>
        <time>2012-07-09T08:02:55Z</time>
      </trkpt>
      <trkpt lat="59.9725388" lon="17.7488236">
        <ele>40.5128</ele>
        <time>2012-07-09T08:03:00Z</time>
      </trkpt>
      <trkpt lat="59.9726407" lon="17.7486427">
        <ele>39.5513</ele>
        <time>2012-07-09T08:03:06Z</time>
      </trkpt>
      <trkpt lat="59.9727126" lon="17.74847">
        <ele>38.1094</ele>
        <time>2012-07-09T08:03:11Z</time>
      </trkpt>
      <trkpt lat="59.9728107" lon="17.748292">
        <ele>35.7061</ele>
        <time>2012-07-09T08:03:16Z</time>
      </trkpt>
      <trkpt lat="59.9728791" lon="17.7481886">
        <ele>35.2255</ele>
        <time>2012-07-09T08:03:20Z</time>
      </trkpt>
      <trkpt lat="59.9729788" lon="17.7480301">
        <ele>34.2642</ele>
        <time>2012-07-09T08:03:25Z</time>
      </trkpt>
      <trkpt lat="59.9730697" lon="17.7478904">
        <ele>33.3029</ele>
        <time>2012-07-09T08:03:30Z</time>
      </trkpt>
      <trkpt lat="59.9731665" lon="17.747758">
        <ele>33.3029</ele>
        <time>2012-07-09T08:03:35Z</time>
      </trkpt>
      <trkpt lat="59.973266" lon="17.7476554">
        <ele>33.7834</ele>
        <time>2012-07-09T08:03:40Z</time>
      </trkpt>
      <trkpt lat="59.9734028" lon="17.747534">
        <ele>33.3029</ele>
        <time>2012-07-09T08:03:46Z</time>
      </trkpt>
      <trkpt lat="59.9735321" lon="17.7473875">
        <ele>34.7449</ele>
        <time>2012-07-09T08:03:52Z</time>
      </trkpt>
      <trkpt lat="59.9736311" lon="17.7472414">
        <ele>36.1868</ele>
        <time>2012-07-09T08:03:57Z</time>
      </trkpt>
      <trkpt lat="59.973756" lon="17.7471094">
        <ele>38.5901</ele>
        <time>2012-07-09T08:04:03Z</time>
      </trkpt>
      <trkpt lat="59.9738649" lon="17.7470385">
        <ele>36.6675</ele>
        <time>2012-07-09T08:04:08Z</time>
      </trkpt>
      <trkpt lat="59.9739935" lon="17.7468427">
        <ele>37.1481</ele>
        <time>2012-07-09T08:04:15Z</time>
      </trkpt>
      <trkpt lat="59.9740938" lon="17.7467028">
        <ele>37.1481</ele>
        <time>2012-07-09T08:04:20Z</time>
      </trkpt>
      <trkpt lat="59.9741868" lon="17.7466204">
        <ele>35.2255</ele>
        <time>2012-07-09T08:04:24Z</time>
      </trkpt>
      <trkpt lat="59.974263" lon="17.7465205">
        <ele>34.2642</ele>
        <time>2012-07-09T08:04:28Z</time>
      </trkpt>
      <trkpt lat="59.9743775" lon="17.7463504">
        <ele>34.7449</ele>
        <time>2012-07-09T08:04:34Z</time>
      </trkpt>
      <trkpt lat="59.974481" lon="17.7461795">
        <ele>35.2255</ele>
        <time>2012-07-09T08:04:40Z</time>
      </trkpt>
      <trkpt lat="59.9745636" lon="17.7460338">
        <ele>35.7061</ele>
        <time>2012-07-09T08:04:45Z</time>
      </trkpt>
      <trkpt lat="59.9746413" lon="17.7458484">
        <ele>37.1481</ele>
        <time>2012-07-09T08:04:50Z</time>
      </trkpt>
      <trkpt lat="59.9747084" lon="17.7457267">
        <ele>37.1481</ele>
        <time>2012-07-09T08:04:54Z</time>
      </trkpt>
      <trkpt lat="59.9747716" lon="17.7455747">
        <ele>38.1094</ele>
        <time>2012-07-09T08:04:58Z</time>
      </trkpt>
      <trkpt lat="59.9748504" lon="17.745385">
        <ele>38.5901</ele>
        <time>2012-07-09T08:05:03Z</time>
      </trkpt>
      <trkpt lat="59.9749401" lon="17.7451431">
        <ele>38.1094</ele>
        <time>2012-07-09T08:05:09Z</time>
      </trkpt>
      <trkpt lat="59.9750193" lon="17.7448837">
        <ele>38.5901</ele>
        <time>2012-07-09T08:05:15Z</time>
      </trkpt>
      <trkpt lat="59.9750764" lon="17.7447209">
        <ele>38.5901</ele>
        <time>2012-07-09T08:05:19Z</time>
      </trkpt>
      <trkpt lat="59.9751285" lon="17.7445018">
        <ele>39.0707</ele>
        <time>2012-07-09T08:05:24Z</time>
      </trkpt>
      <trkpt lat="59.9751804" lon="17.7442881">
        <ele>39.5513</ele>
        <time>2012-07-09T08:05:29Z</time>
      </trkpt>
      <trkpt lat="59.9752306" lon="17.7440216">
        <ele>40.0321</ele>
        <time>2012-07-09T08:05:35Z</time>
      </trkpt>
      <trkpt lat="59.9752682" lon="17.7438116">
        <ele>40.0321</ele>
        <time>2012-07-09T08:05:40Z</time>
      </trkpt>
      <trkpt lat="59.9752918" lon="17.7436651">
        <ele>40.9934</ele>
        <time>2012-07-09T08:05:44Z</time>
      </trkpt>
      <trkpt lat="59.9753453" lon="17.7433708">
        <ele>41.474</ele>
        <time>2012-07-09T08:05:50Z</time>
      </trkpt>
      <trkpt lat="59.9753887" lon="17.7431389">
        <ele>41.474</ele>
        <time>2012-07-09T08:05:55Z</time>
      </trkpt>
      <trkpt lat="59.9754693" lon="17.742852">
        <ele>41.474</ele>
        <time>2012-07-09T08:06:01Z</time>
      </trkpt>
      <trkpt lat="59.9755472" lon="17.7425876">
        <ele>40.0321</ele>
        <time>2012-07-09T08:06:07Z</time>
      </trkpt>
      <trkpt lat="59.9756213" lon="17.7423223">
        <ele>39.5513</ele>
        <time>2012-07-09T08:06:13Z</time>
      </trkpt>
      <trkpt lat="59.9756356" lon="17.7422831">
        <ele>39.5513</ele>
        <time>2012-07-09T08:06:14Z</time>
      </trkpt>
      <trkpt lat="59.9757113" lon="17.741979">
        <ele>38.5901</ele>
        <time>2012-07-09T08:06:21Z</time>
      </trkpt>
      <trkpt lat="59.9757791" lon="17.7417191">
        <ele>37.6287</ele>
        <time>2012-07-09T08:06:27Z</time>
      </trkpt>
      <trkpt lat="59.9758114" lon="17.7415377">
        <ele>37.1481</ele>
        <time>2012-07-09T08:06:31Z</time>
      </trkpt>
      <trkpt lat="59.9758409" lon="17.7413503">
        <ele>36.6675</ele>
        <time>2012-07-09T08:06:35Z</time>
      </trkpt>
      <trkpt lat="59.9759037" lon="17.7411342">
        <ele>36.6675</ele>
        <time>2012-07-09T08:06:40Z</time>
      </trkpt>
      <trkpt lat="59.9759656" lon="17.7409224">
        <ele>37.6287</ele>
        <time>2012-07-09T08:06:45Z</time>
      </trkpt>
      <trkpt lat="59.975998" lon="17.740797">
        <ele>38.1094</ele>
        <time>2012-07-09T08:06:48Z</time>
      </trkpt>
      <trkpt lat="59.9760506" lon="17.7405733">
        <ele>38.5901</ele>
        <time>2012-07-09T08:06:53Z</time>
      </trkpt>
      <trkpt lat="59.9761197" lon="17.7403431">
        <ele>39.5513</ele>
        <time>2012-07-09T08:06:58Z</time>
      </trkpt>
      <trkpt lat="59.9761626" lon="17.7402102">
        <ele>39.5513</ele>
        <time>2012-07-09T08:07:01Z</time>
      </trkpt>
      <trkpt lat="59.9762562" lon="17.73992">
        <ele>38.1094</ele>
        <time>2012-07-09T08:07:08Z</time>
      </trkpt>
      <trkpt lat="59.9763228" lon="17.7397058">
        <ele>38.1094</ele>
        <time>2012-07-09T08:07:13Z</time>
      </trkpt>
      <trkpt lat="59.9763906" lon="17.7395439">
        <ele>37.1481</ele>
        <time>2012-07-09T08:07:17Z</time>
      </trkpt>
      <trkpt lat="59.9764988" lon="17.7394128">
        <ele>36.6675</ele>
        <time>2012-07-09T08:07:22Z</time>
      </trkpt>
      <trkpt lat="59.976615" lon="17.7393529">
        <ele>35.7061</ele>
        <time>2012-07-09T08:07:26Z</time>
      </trkpt>
      <trkpt lat="59.9767511" lon="17.7392956">
        <ele>36.1868</ele>
        <time>2012-07-09T08:07:31Z</time>
      </trkpt>
      <trkpt lat="59.9768511" lon="17.7392361">
        <ele>36.6675</ele>
        <time>2012-07-09T08:07:35Z</time>
      </trkpt>
      <trkpt lat="59.9769809" lon="17.7392139">
        <ele>36.6675</ele>
        <time>2012-07-09T08:07:40Z</time>
      </trkpt>
      <trkpt lat="59.9771256" lon="17.7391695">
        <ele>37.1481</ele>
        <time>2012-07-09T08:07:45Z</time>
      </trkpt>
      <trkpt lat="59.9773095" lon="17.7390596">
        <ele>36.1868</ele>
        <time>2012-07-09T08:07:52Z</time>
      </trkpt>
      <trkpt lat="59.9774769" lon="17.7390058">
        <ele>36.6675</ele>
        <time>2012-07-09T08:07:58Z</time>
      </trkpt>
      <trkpt lat="59.9776188" lon="17.7389648">
        <ele>38.5901</ele>
        <time>2012-07-09T08:08:04Z</time>
      </trkpt>
      <trkpt lat="59.9777623" lon="17.7389761">
        <ele>40.0321</ele>
        <time>2012-07-09T08:08:09Z</time>
      </trkpt>
      <trkpt lat="59.9778927" lon="17.7390001">
        <ele>39.5513</ele>
        <time>2012-07-09T08:08:14Z</time>
      </trkpt>
      <trkpt lat="59.9780649" lon="17.7390609">
        <ele>41.474</ele>
        <time>2012-07-09T08:08:21Z</time>
      </trkpt>
      <trkpt lat="59.9781146" lon="17.7391211">
        <ele>41.474</ele>
        <time>2012-07-09T08:08:24Z</time>
      </trkpt>
      <trkpt lat="59.9782684" lon="17.7391689">
        <ele>41.474</ele>
        <time>2012-07-09T08:08:31Z</time>
      </trkpt>
      <trkpt lat="59.978447" lon="17.7392256">
        <ele>40.5128</ele>
        <time>2012-07-09T08:08:38Z</time>
      </trkpt>
      <trkpt lat="59.978571" lon="17.7392386">
        <ele>40.0321</ele>
        <time>2012-07-09T08:08:43Z</time>
      </trkpt>
      <trkpt lat="59.9786884" lon="17.7392595">
        <ele>39.5513</ele>
        <time>2012-07-09T08:08:48Z</time>
      </trkpt>
      <trkpt lat="59.9788069" lon="17.7393362">
        <ele>39.5513</ele>
        <time>2012-07-09T08:08:53Z</time>
      </trkpt>
      <trkpt lat="59.9789243" lon="17.7393956">
        <ele>40.0321</ele>
        <time>2012-07-09T08:08:58Z</time>
      </trkpt>
      <trkpt lat="59.978912" lon="17.7396346">
        <ele>40.9934</ele>
        <time>2012-07-09T08:09:03Z</time>
      </trkpt>
      <trkpt lat="59.9788154" lon="17.7398072">
        <ele>40.9934</ele>
        <time>2012-07-09T08:09:08Z</time>
      </trkpt>
      <trkpt lat="59.9788106" lon="17.7398706">
        <ele>40.5128</ele>
        <time>2012-07-09T08:09:10Z</time>
      </trkpt>
    </trkseg>
  </trk>
</gpx>